createdAt,value
2017-12-27T00:01:50.226Z,8.97
2017-12-27T00:04:29.992Z,8.50
2017-12-27T00:07:10.018Z,8.10
2017-12-27T00:09:49.471Z,8.97
2017-12-27T00:12:29.373Z,9.90
2017-12-27T00:15:08.960Z,12.70
2017-12-27T00:17:49.662Z,8.20
2017-12-27T00:20:30.365Z,6.73
2017-12-27T00:23:11.209Z,10.53
2017-12-27T00:25:51.190Z,7.00
2017-12-27T00:28:30.936Z,10.53
2017-12-27T00:31:10.935Z,8.20
2017-12-27T00:33:44.856Z,8.03
2017-12-27T00:36:18.561Z,8.83
2017-12-27T00:38:53.080Z,8.43
2017-12-27T00:41:26.749Z,9.03
2017-12-27T00:44:01.225Z,9.20
2017-12-27T00:46:35.122Z,10.63
2017-12-27T00:49:09.707Z,9.20
2017-12-27T00:51:43.880Z,9.20
2017-12-27T00:54:17.561Z,7.20
2017-12-27T00:56:51.286Z,9.13
2017-12-27T00:59:25.071Z,7.27
2017-12-27T01:01:58.694Z,11.20
2017-12-27T01:04:32.428Z,8.67
2017-12-27T01:07:06.686Z,7.10
2017-12-27T01:09:41.165Z,9.60
2017-12-27T01:12:15.633Z,17.33
2017-12-27T01:14:49.438Z,6.70
2017-12-27T01:17:23.507Z,8.93
2017-12-27T01:19:59.323Z,6.50
2017-12-27T01:22:33.685Z,9.30
2017-12-27T01:25:08.733Z,9.73
2017-12-27T01:27:43.118Z,8.10
2017-12-27T01:30:17.390Z,8.80
2017-12-27T01:32:52.552Z,9.73
2017-12-27T01:35:26.670Z,9.90
2017-12-27T01:38:00.359Z,11.93
2017-12-27T01:40:34.976Z,15.17
2017-12-27T01:43:09.506Z,8.00
2017-12-27T01:45:43.309Z,8.53
2017-12-27T01:48:18.603Z,12.30
2017-12-27T01:50:53.431Z,9.40
2017-12-27T01:53:27.369Z,11.70
2017-12-27T01:56:01.122Z,20.53
2017-12-27T01:58:34.851Z,14.23
2017-12-27T02:01:09.259Z,9.30
2017-12-27T02:03:43.373Z,10.53
2017-12-27T02:06:17.032Z,8.70
2017-12-27T02:08:51.552Z,7.33
2017-12-27T02:11:25.592Z,7.80
2017-12-27T02:13:59.292Z,12.20
2017-12-27T02:16:33.032Z,10.17
2017-12-27T02:19:07.480Z,9.07
2017-12-27T02:21:41.415Z,8.57
2017-12-27T02:24:15.971Z,8.43
2017-12-27T02:26:50.037Z,9.07
2017-12-27T02:29:23.721Z,9.43
2017-12-27T02:31:58.236Z,10.40
2017-12-27T02:34:33.154Z,15.23
2017-12-27T02:37:07.098Z,9.27
2017-12-27T02:43:05.375Z,10.80
2017-12-27T02:45:40.169Z,15.30
2017-12-27T02:48:14.114Z,11.00
2017-12-27T02:50:48.017Z,8.00
2017-12-27T02:53:21.817Z,10.70
2017-12-27T02:55:57.060Z,9.90
2017-12-27T02:58:31.797Z,9.30
2017-12-27T03:01:06.358Z,8.43
2017-12-27T03:03:41.077Z,17.70
2017-12-27T03:06:15.974Z,16.50
2017-12-27T03:08:50.720Z,7.83
2017-12-27T03:11:24.612Z,10.50
2017-12-27T03:13:59.117Z,9.70
2017-12-27T03:16:33.781Z,10.03
2017-12-27T03:19:08.753Z,11.47
2017-12-27T03:21:44.222Z,10.07
2017-12-27T03:24:18.422Z,8.10
2017-12-27T03:26:52.975Z,7.80
2017-12-27T03:29:27.925Z,14.17
2017-12-27T03:32:03.189Z,8.30
2017-12-27T03:34:36.819Z,9.67
2017-12-27T03:37:12.156Z,11.60
2017-12-27T03:39:47.135Z,9.17
2017-12-27T03:42:22.485Z,8.60
2017-12-27T03:44:58.351Z,8.87
2017-12-27T03:47:32.926Z,9.87
2017-12-27T03:50:07.368Z,10.07
2017-12-27T03:52:41.384Z,10.23
2017-12-27T03:55:15.133Z,8.40
2017-12-27T03:57:49.073Z,8.70
2017-12-27T04:00:23.311Z,8.50
2017-12-27T04:02:57.672Z,8.57
2017-12-27T04:05:31.653Z,10.50
2017-12-27T04:08:05.681Z,8.70
2017-12-27T04:10:40.775Z,11.10
2017-12-27T04:13:15.135Z,10.33
2017-12-27T04:15:48.814Z,11.10
2017-12-27T04:18:22.480Z,10.90
2017-12-27T04:20:57.699Z,9.13
2017-12-27T04:23:32.920Z,12.97
2017-12-27T04:26:06.868Z,14.70
2017-12-27T04:28:41.376Z,7.40
2017-12-27T04:31:16.029Z,11.53
2017-12-27T04:33:49.929Z,8.33
2017-12-27T04:36:24.638Z,8.90
2017-12-27T04:38:59.536Z,9.77
2017-12-27T04:41:33.734Z,11.53
2017-12-27T04:44:08.563Z,12.87
2017-12-27T04:46:43.382Z,11.10
2017-12-27T04:49:17.524Z,9.37
2017-12-27T04:51:51.449Z,14.87
2017-12-27T04:54:26.079Z,9.20
2017-12-27T04:57:00.721Z,10.77
2017-12-27T04:59:34.984Z,8.47
2017-12-27T05:02:09.550Z,10.00
2017-12-27T05:04:43.582Z,10.70
2017-12-27T05:07:18.093Z,11.20
2017-12-27T05:09:52.432Z,11.37
2017-12-27T05:12:26.283Z,9.27
2017-12-27T05:15:00.321Z,9.20
2017-12-27T05:17:34.129Z,12.40
2017-12-27T05:20:09.438Z,8.53
2017-12-27T05:22:44.833Z,9.50
2017-12-27T05:25:19.938Z,18.43
2017-12-27T05:27:53.905Z,9.30
2017-12-27T05:30:28.548Z,8.47
2017-12-27T05:33:02.352Z,9.47
2017-12-27T05:35:36.296Z,9.53
2017-12-27T05:38:11.688Z,11.17
2017-12-27T05:40:45.821Z,9.63
2017-12-27T05:43:20.373Z,10.77
2017-12-27T05:45:55.456Z,11.30
2017-12-27T05:48:29.432Z,10.33
2017-12-27T05:51:04.013Z,13.60
2017-12-27T05:53:38.268Z,8.13
2017-12-27T05:56:11.934Z,10.80
2017-12-27T05:58:46.634Z,12.20
2017-12-27T06:01:20.769Z,11.50
2017-12-27T06:03:55.432Z,8.93
2017-12-27T06:06:29.639Z,9.00
2017-12-27T06:09:04.354Z,8.83
2017-12-27T06:11:38.588Z,8.17
2017-12-27T06:14:13.760Z,10.00
2017-12-27T06:16:48.575Z,10.77
2017-12-27T06:19:22.456Z,10.97
2017-12-27T06:21:56.304Z,8.20
2017-12-27T06:24:30.957Z,9.53
2017-12-27T06:27:05.158Z,8.87
2017-12-27T06:29:39.243Z,10.83
2017-12-27T06:32:14.037Z,12.93
2017-12-27T06:34:48.879Z,10.27
2017-12-27T06:37:22.901Z,13.13
2017-12-27T06:39:58.109Z,9.77
2017-12-27T06:42:32.121Z,11.30
2017-12-27T06:45:05.957Z,10.43
2017-12-27T06:47:39.693Z,12.03
2017-12-27T06:50:13.371Z,12.00
2017-12-27T06:52:48.005Z,12.13
2017-12-27T06:55:22.954Z,10.13
2017-12-27T06:57:57.860Z,11.73
2017-12-27T07:00:31.628Z,8.37
2017-12-27T07:03:06.221Z,10.83
2017-12-27T07:05:40.865Z,11.30
2017-12-27T07:08:14.948Z,11.00
2017-12-27T07:10:48.823Z,9.50
2017-12-27T07:13:24.170Z,8.53
2017-12-27T07:15:57.926Z,8.90
2017-12-27T07:18:31.638Z,10.23
2017-12-27T07:21:05.529Z,11.33
2017-12-27T07:23:40.765Z,8.70
2017-12-27T07:26:15.473Z,11.97
2017-12-27T07:28:49.344Z,11.17
2017-12-27T07:31:23.285Z,11.00
2017-12-27T07:33:59.107Z,10.13
2017-12-27T07:36:33.725Z,9.10
2017-12-27T07:39:08.279Z,8.90
2017-12-27T07:41:41.949Z,8.90
2017-12-27T07:44:17.312Z,8.90
2017-12-27T07:46:51.996Z,12.17
2017-12-27T07:49:25.977Z,13.27
2017-12-27T07:52:01.244Z,9.30
2017-12-27T07:54:36.008Z,8.07
2017-12-27T07:57:09.918Z,8.50
2017-12-27T07:59:45.249Z,10.20
2017-12-27T08:02:19.219Z,9.80
2017-12-27T08:04:53.030Z,9.83
2017-12-27T08:07:27.488Z,12.40
2017-12-27T08:10:02.216Z,11.67
2017-12-27T08:12:36.905Z,11.73
2017-12-27T08:15:11.692Z,9.90
2017-12-27T08:17:45.800Z,13.27
2017-12-27T08:20:20.532Z,14.70
2017-12-27T08:22:54.500Z,11.83
2017-12-27T08:25:28.988Z,11.73
2017-12-27T08:28:03.536Z,10.27
2017-12-27T08:30:37.665Z,10.03
2017-12-27T08:33:11.970Z,12.73
2017-12-27T08:35:46.650Z,10.90
2017-12-27T08:38:21.482Z,11.37
2017-12-27T08:40:56.290Z,11.17
2017-12-27T08:43:30.890Z,11.80
2017-12-27T08:46:05.640Z,14.00
2017-12-27T08:48:40.436Z,10.30
2017-12-27T08:51:15.208Z,11.67
2017-12-27T08:53:49.978Z,11.03
2017-12-27T08:56:24.547Z,11.83
2017-12-27T08:58:59.060Z,10.30
2017-12-27T09:01:33.162Z,10.40
2017-12-27T09:04:06.800Z,10.87
2017-12-27T09:06:42.258Z,10.87
2017-12-27T09:09:16.878Z,11.13
2017-12-27T09:11:50.666Z,13.47
2017-12-27T09:14:25.708Z,10.60
2017-12-27T09:17:00.022Z,14.00
2017-12-27T09:19:34.455Z,11.40
2017-12-27T09:22:08.821Z,10.57
2017-12-27T09:24:43.366Z,10.17
2017-12-27T09:27:18.707Z,11.70
2017-12-27T09:29:52.769Z,10.13
2017-12-27T09:32:26.479Z,10.50
2017-12-27T09:35:00.969Z,10.90
2017-12-27T09:37:35.779Z,11.20
2017-12-27T09:40:09.804Z,10.17
2017-12-27T09:42:44.165Z,11.60
2017-12-27T09:45:18.222Z,15.17
2017-12-27T09:47:52.625Z,10.33
2017-12-27T09:50:26.636Z,10.20
2017-12-27T09:53:00.281Z,12.53
2017-12-27T09:55:34.224Z,12.40
2017-12-27T09:58:08.005Z,11.00
2017-12-27T10:00:42.590Z,13.37
2017-12-27T10:03:17.014Z,10.90
2017-12-27T10:05:51.622Z,10.90
2017-12-27T10:08:25.541Z,11.23
2017-12-27T10:11:00.370Z,13.33
2017-12-27T10:13:34.931Z,13.00
2017-12-27T10:16:08.530Z,11.80
2017-12-27T10:18:42.312Z,12.40
2017-12-27T10:21:16.003Z,13.20
2017-12-27T10:23:49.595Z,14.97
2017-12-27T10:26:23.152Z,11.50
2017-12-27T10:28:56.961Z,11.20
2017-12-27T10:31:30.712Z,12.50
2017-12-27T10:34:04.388Z,11.90
2017-12-27T10:36:38.716Z,12.50
2017-12-27T10:39:13.668Z,12.37
2017-12-27T10:41:48.372Z,10.60
2017-12-27T10:44:23.152Z,13.20
2017-12-27T10:46:57.828Z,11.80
2017-12-27T10:49:31.932Z,12.80
2017-12-27T10:52:06.686Z,11.77
2017-12-27T10:54:40.698Z,13.70
2017-12-27T10:57:14.507Z,13.10
2017-12-27T10:59:48.899Z,13.17
2017-12-27T11:02:22.820Z,12.60
2017-12-27T11:04:57.360Z,12.90
2017-12-27T11:07:31.381Z,11.83
2017-12-27T11:10:05.860Z,12.80
2017-12-27T11:12:40.714Z,7.40
2017-12-27T11:15:15.484Z,12.83
2017-12-27T11:17:50.629Z,4.97
2017-12-27T11:20:25.105Z,10.30
2017-12-27T11:22:58.992Z,12.20
2017-12-27T11:25:32.820Z,11.80
2017-12-27T11:28:07.437Z,11.67
2017-12-27T11:30:40.995Z,11.43
2017-12-27T11:33:15.575Z,12.10
2017-12-27T11:35:50.075Z,12.60
2017-12-27T11:38:24.199Z,13.27
2017-12-27T11:40:57.958Z,12.10
2017-12-27T11:43:31.705Z,12.03
2017-12-27T11:46:06.282Z,12.27
2017-12-27T11:48:40.021Z,11.93
2017-12-27T11:51:13.815Z,12.00
2017-12-27T11:53:48.380Z,12.37
2017-12-27T11:56:22.368Z,12.30
2017-12-27T11:58:56.180Z,12.23
2017-12-27T12:01:30.573Z,13.67
2017-12-27T12:04:05.228Z,14.23
2017-12-27T12:06:39.917Z,13.00
2017-12-27T12:09:14.885Z,13.40
2017-12-27T12:11:49.680Z,12.87
2017-12-27T12:14:24.528Z,13.90
2017-12-27T12:16:59.361Z,13.17
2017-12-27T12:19:33.520Z,13.93
2017-12-27T12:22:07.573Z,13.10
2017-12-27T12:24:41.878Z,13.20
2017-12-27T12:27:15.560Z,13.37
2017-12-27T12:29:49.256Z,14.50
2017-12-27T12:32:23.102Z,13.40
2017-12-27T12:34:56.778Z,13.53
2017-12-27T12:37:30.527Z,14.20
2017-12-27T12:40:04.229Z,14.83
2017-12-27T12:42:38.733Z,13.47
2017-12-27T12:45:13.539Z,14.33
2017-12-27T12:47:48.417Z,13.47
2017-12-27T12:50:22.554Z,14.37
2017-12-27T12:52:56.366Z,13.63
2017-12-27T12:55:31.065Z,14.63
2017-12-27T12:58:06.086Z,13.87
2017-12-27T13:00:40.947Z,14.20
2017-12-27T13:03:15.626Z,14.10
2017-12-27T13:05:49.631Z,14.40
2017-12-27T13:08:24.051Z,14.27
2017-12-27T13:10:58.132Z,14.37
2017-12-27T13:13:32.791Z,13.60
2017-12-27T13:16:06.940Z,14.13
2017-12-27T13:18:40.609Z,14.43
2017-12-27T13:21:14.414Z,14.43
2017-12-27T13:23:50.939Z,13.80
2017-12-27T13:26:26.670Z,14.40
2017-12-27T13:29:01.158Z,14.63
2017-12-27T13:31:36.024Z,14.40
2017-12-27T13:34:10.940Z,14.37
2017-12-27T13:36:44.958Z,14.40
2017-12-27T13:39:18.649Z,14.57
2017-12-27T13:41:52.459Z,15.37
2017-12-27T13:44:26.112Z,14.80
2017-12-27T13:47:01.488Z,14.40
2017-12-27T13:49:36.280Z,15.93
2017-12-27T13:52:10.380Z,17.53
2017-12-27T13:54:44.215Z,15.43
2017-12-27T13:57:18.896Z,15.40
2017-12-27T13:59:53.665Z,15.80
2017-12-27T14:02:27.919Z,15.10
2017-12-27T14:05:02.344Z,15.63
2017-12-27T14:07:36.213Z,15.93
2017-12-27T14:10:10.047Z,14.40
2017-12-27T14:12:44.432Z,15.40
2017-12-27T14:15:18.933Z,14.13
2017-12-27T14:17:53.272Z,14.83
2017-12-27T14:20:26.983Z,15.30
2017-12-27T14:23:01.666Z,18.10
2017-12-27T14:25:36.365Z,17.00
2017-12-27T14:28:11.073Z,15.63
2017-12-27T14:30:45.178Z,16.50
2017-12-27T14:33:18.824Z,16.40
2017-12-27T14:35:53.230Z,16.00
2017-12-27T14:38:27.722Z,15.60
2017-12-27T14:41:01.772Z,16.43
2017-12-27T14:43:36.901Z,14.83
2017-12-27T14:46:11.190Z,15.20
2017-12-27T14:48:45.652Z,15.87
2017-12-27T14:51:20.944Z,15.80
2017-12-27T14:53:55.299Z,15.60
2017-12-27T14:56:29.799Z,16.00
2017-12-27T14:59:03.805Z,15.50
2017-12-27T15:01:38.237Z,16.50
2017-12-27T15:04:13.168Z,15.87
2017-12-27T15:06:47.888Z,15.80
2017-12-27T15:09:21.805Z,18.90
2017-12-27T15:11:57.149Z,16.40
2017-12-27T15:14:31.153Z,16.10
2017-12-27T15:17:05.713Z,15.80
2017-12-27T15:19:39.675Z,16.23
2017-12-27T15:22:15.035Z,16.83
2017-12-27T15:24:48.981Z,23.30
2017-12-27T15:27:22.823Z,18.17
2017-12-27T15:29:57.259Z,16.43
2017-12-27T15:32:31.149Z,18.10
2017-12-27T15:35:04.990Z,16.87
2017-12-27T15:37:40.328Z,21.90
2017-12-27T15:40:14.427Z,19.33
2017-12-27T15:42:48.819Z,17.30
2017-12-27T15:45:23.595Z,16.97
2017-12-27T15:47:57.760Z,18.00
2017-12-27T15:50:31.398Z,16.80
2017-12-27T15:53:05.176Z,19.43
2017-12-27T15:55:39.725Z,18.00
2017-12-27T15:58:14.546Z,21.30
2017-12-27T16:00:49.418Z,19.10
2017-12-27T16:03:24.195Z,18.63
2017-12-27T16:05:59.048Z,20.27
2017-12-27T16:08:34.461Z,22.93
2017-12-27T16:11:09.531Z,20.20
2017-12-27T16:13:43.444Z,25.77
2017-12-27T16:16:17.281Z,20.77
2017-12-27T16:18:51.247Z,20.73
2017-12-27T16:21:25.876Z,22.27
2017-12-27T16:23:59.613Z,21.43
2017-12-27T16:26:34.176Z,19.63
2017-12-27T16:29:09.047Z,19.70
2017-12-27T16:31:43.284Z,19.67
2017-12-27T16:34:17.067Z,23.10
2017-12-27T16:36:51.549Z,21.27
2017-12-27T16:39:25.652Z,24.37
2017-12-27T16:42:00.209Z,21.40
2017-12-27T16:44:34.173Z,21.20
2017-12-27T16:47:08.830Z,21.97
2017-12-27T16:49:43.787Z,20.73
2017-12-27T16:52:17.805Z,21.53
2017-12-27T16:54:52.737Z,20.57
2017-12-27T16:57:26.885Z,20.67
2017-12-27T17:00:00.652Z,19.80
2017-12-27T17:02:35.188Z,20.60
2017-12-27T17:05:09.360Z,20.40
2017-12-27T17:07:43.441Z,21.63
2017-12-27T17:10:18.101Z,21.20
2017-12-27T17:12:52.898Z,19.33
2017-12-27T17:15:26.998Z,19.80
2017-12-27T17:18:00.793Z,21.53
2017-12-27T17:20:35.384Z,21.17
2017-12-27T17:23:09.251Z,21.50
2017-12-27T17:25:43.794Z,21.77
2017-12-27T17:28:17.927Z,21.17
2017-12-27T17:30:51.556Z,21.47
2017-12-27T17:33:25.441Z,21.27
2017-12-27T17:35:59.980Z,21.27
2017-12-27T17:38:34.442Z,22.07
2017-12-27T17:41:10.132Z,21.77
2017-12-27T17:43:44.731Z,23.80
2017-12-27T17:46:19.660Z,20.40
2017-12-27T17:48:54.936Z,21.27
2017-12-27T17:51:29.609Z,23.90
2017-12-27T17:54:04.330Z,22.43
2017-12-27T17:56:39.491Z,22.00
2017-12-27T17:59:13.996Z,20.90
2017-12-27T18:01:47.966Z,21.00
2017-12-27T18:04:21.797Z,21.13
2017-12-27T18:06:55.619Z,21.60
2017-12-27T18:09:30.083Z,20.53
2017-12-27T18:12:05.220Z,22.27
2017-12-27T18:14:39.205Z,24.27
2017-12-27T18:17:13.018Z,21.70
2017-12-27T18:19:46.780Z,26.13
2017-12-27T18:22:21.335Z,35.70
2017-12-27T18:24:55.380Z,20.77
2017-12-27T18:27:29.342Z,22.40
2017-12-27T18:30:03.902Z,24.20
2017-12-27T18:32:38.761Z,22.00
2017-12-27T18:35:12.588Z,24.00
2017-12-27T18:37:46.457Z,24.43
2017-12-27T18:40:20.085Z,23.03
2017-12-27T18:42:54.026Z,22.87
2017-12-27T18:45:27.661Z,25.60
2017-12-27T18:48:01.496Z,23.37
2017-12-27T18:50:37.665Z,23.60
2017-12-27T18:53:12.016Z,22.50
2017-12-27T18:55:45.933Z,22.90
2017-12-27T18:58:19.602Z,25.77
2017-12-27T19:00:54.075Z,23.90
2017-12-27T19:03:28.405Z,23.87
2017-12-27T19:06:02.013Z,24.80
2017-12-27T19:08:35.628Z,23.77
2017-12-27T19:11:09.374Z,25.57
2017-12-27T19:13:44.000Z,24.90
2017-12-27T19:16:17.834Z,23.97
2017-12-27T19:18:52.537Z,25.30
2017-12-27T19:21:27.337Z,25.20
2017-12-27T19:24:02.520Z,22.07
2017-12-27T19:26:36.626Z,22.30
2017-12-27T19:29:12.107Z,25.23
2017-12-27T19:31:47.077Z,24.43
2017-12-27T19:34:21.217Z,24.73
2017-12-27T19:36:55.130Z,23.53
2017-12-27T19:39:29.666Z,25.23
2017-12-27T19:42:03.824Z,23.63
2017-12-27T19:44:38.625Z,23.77
2017-12-27T19:47:13.518Z,22.40
2017-12-27T19:49:47.665Z,23.13
2017-12-27T19:52:21.544Z,25.03
2017-12-27T19:54:58.226Z,25.60
2017-12-27T19:57:32.966Z,27.07
2017-12-27T20:00:07.172Z,22.70
2017-12-27T20:02:41.888Z,23.77
2017-12-27T20:05:16.969Z,26.30
2017-12-27T20:07:50.768Z,24.40
2017-12-27T20:10:25.656Z,25.80
2017-12-27T20:13:00.270Z,27.80
2017-12-27T20:15:34.410Z,26.53
2017-12-27T20:18:08.249Z,27.07
2017-12-27T20:20:42.021Z,31.67
2017-12-27T20:23:15.715Z,28.10
2017-12-27T20:25:49.449Z,28.50
2017-12-27T20:28:24.043Z,27.00
2017-12-27T20:30:58.156Z,27.50
2017-12-27T20:33:32.000Z,25.70
2017-12-27T20:36:06.006Z,25.97
2017-12-27T20:38:40.519Z,29.50
2017-12-27T20:41:15.300Z,26.40
2017-12-27T20:43:49.384Z,26.97
2017-12-27T20:46:25.018Z,29.67
2017-12-27T20:48:59.662Z,28.47
2017-12-27T20:51:33.930Z,28.53
2017-12-27T20:54:08.572Z,30.03
2017-12-27T20:56:42.675Z,28.50
2017-12-27T20:59:16.633Z,31.93
2017-12-27T21:01:50.456Z,36.00
2017-12-27T21:04:24.178Z,31.63
2017-12-27T21:06:58.700Z,27.70
2017-12-27T21:09:33.902Z,29.10
2017-12-27T21:12:08.181Z,28.10
2017-12-27T21:14:42.865Z,30.33
2017-12-27T21:17:17.701Z,29.13
2017-12-27T21:19:52.405Z,30.70
2017-12-27T21:22:27.188Z,28.50
2017-12-27T21:25:01.995Z,28.63
2017-12-27T21:27:35.997Z,27.47
2017-12-27T21:30:09.664Z,27.50
2017-12-27T21:32:44.261Z,29.47
2017-12-27T21:35:17.926Z,30.03
2017-12-27T21:37:52.315Z,29.57
2017-12-27T21:40:27.206Z,28.90
2017-12-27T21:43:01.196Z,29.87
2017-12-27T21:45:34.923Z,33.37
2017-12-27T21:48:14.333Z,29.70
2017-12-27T21:50:49.374Z,29.40
2017-12-27T21:53:23.276Z,29.60
2017-12-27T21:55:57.765Z,29.93
2017-12-27T21:58:38.352Z,32.00
2017-12-27T22:01:18.202Z,27.87
2017-12-27T22:03:52.296Z,31.60
2017-12-27T22:06:26.979Z,30.37
2017-12-27T22:09:00.900Z,30.40
2017-12-27T22:11:35.436Z,29.10
2017-12-27T22:14:09.285Z,30.70
2017-12-27T22:16:43.877Z,34.30
2017-12-27T22:19:18.617Z,29.67
2017-12-27T22:21:52.801Z,30.40
2017-12-27T22:24:26.492Z,30.70
2017-12-27T22:27:00.402Z,30.40
2017-12-27T22:29:34.206Z,36.23
2017-12-27T22:32:07.859Z,28.33
2017-12-27T22:34:42.384Z,30.53
2017-12-27T22:37:17.187Z,29.57
2017-12-27T22:39:51.821Z,31.67
2017-12-27T22:42:25.908Z,31.23
2017-12-27T22:45:00.465Z,15.20
2017-12-27T22:47:35.045Z,18.63
2017-12-27T22:50:09.917Z,21.73
2017-12-27T22:52:44.573Z,19.10
2017-12-27T22:55:18.633Z,18.33
2017-12-27T22:57:52.254Z,23.07
2017-12-27T23:00:25.931Z,19.67
2017-12-27T23:02:59.691Z,18.73
2017-12-27T23:05:34.408Z,23.10
2017-12-27T23:08:08.199Z,19.90
2017-12-27T23:10:41.898Z,22.10
2017-12-27T23:13:16.539Z,20.90
2017-12-27T23:15:51.489Z,22.87
2017-12-27T23:18:25.377Z,22.63
2017-12-27T23:20:59.075Z,21.10
2017-12-27T23:23:33.025Z,20.20
2017-12-27T23:26:06.653Z,22.03
2017-12-27T23:28:40.453Z,21.80
2017-12-27T23:31:14.637Z,21.80
2017-12-27T23:33:49.891Z,21.63
2017-12-27T23:36:23.860Z,22.70
2017-12-27T23:38:58.886Z,23.50
2017-12-27T23:41:34.024Z,24.30
2017-12-27T23:44:09.407Z,23.47
2017-12-27T23:46:44.956Z,24.73
2017-12-27T23:49:19.368Z,27.93
2017-12-27T23:51:53.461Z,20.90
2017-12-27T23:54:27.194Z,25.90
2017-12-27T23:57:01.756Z,142.63
2017-12-27T23:59:36.505Z,22.10
